sensor_id;sensor_type;location;lat;lon;timestamp;pressure;altitude;pressure_sealevel;temperature;humidity
37610;BME280;23457;51.966;8.230;2023-02-22T00:01:41;100921.97;;;9.52;100.00
37610;BME280;23457;51.966;8.230;2023-02-22T00:04:36;100915.16;;;9.55;100.00
37610;BME280;23457;51.966;8.230;2023-02-22T00:07:06;100917.78;;;9.57;100.00
37610;BME280;23457;51.966;8.230;2023-02-22T00:09:32;100911.88;;;9.62;100.00
37610;BME280;23457;51.966;8.230;2023-02-22T00:11:59;100902.94;;;9.51;100.00
37610;BME280;23457;51.966;8.230;2023-02-22T00:14:26;100902.88;;;9.48;100.00
37610;BME280;23457;51.966;8.230;2023-02-22T00:16:53;100901.13;;;9.47;100.00
37610;BME280;23457;51.966;8.230;2023-02-22T00:19:25;100894.25;;;9.49;100.00
37610;BME280;23457;51.966;8.230;2023-02-22T00:21:53;100896.84;;;9.49;100.00
37610;BME280;23457;51.966;8.230;2023-02-22T00:24:20;100891.72;;;9.52;100.00
37610;BME280;23457;51.966;8.230;2023-02-22T00:26:54;100893.47;;;9.53;100.00
37610;BME280;23457;51.966;8.230;2023-02-22T00:29:24;100902.88;;;9.48;100.00
37610;BME280;23457;51.966;8.230;2023-02-22T00:31:51;100892.44;;;9.45;100.00
37610;BME280;23457;51.966;8.230;2023-02-22T00:34:18;100890.69;;;9.44;100.00
37610;BME280;23457;51.966;8.230;2023-02-22T00:36:48;100888.91;;;9.43;100.00
37610;BME280;23457;51.966;8.230;2023-02-22T00:39:15;100888.28;;;9.53;100.00
37610;BME280;23457;51.966;8.230;2023-02-22T00:41:42;100889.28;;;9.58;100.00
37610;BME280;23457;51.966;8.230;2023-02-22T00:44:09;100892.50;;;9.48;100.00
37610;BME280;23457;51.966;8.230;2023-02-22T00:46:38;100887.31;;;9.48;100.00
37610;BME280;23457;51.966;8.230;2023-02-22T00:49:05;100888.34;;;9.56;100.00
37610;BME280;23457;51.966;8.230;2023-02-22T00:51:31;100880.56;;;9.56;100.00
37610;BME280;23457;51.966;8.230;2023-02-22T00:53:59;100877.06;;;9.54;100.00
37610;BME280;23457;51.966;8.230;2023-02-22T00:56:26;100871.03;;;9.55;100.00
37610;BME280;23457;51.966;8.230;2023-02-22T00:58:53;100880.41;;;9.50;100.00
37610;BME280;23457;51.966;8.230;2023-02-22T01:01:19;100875.22;;;9.50;100.00
37610;BME280;23457;51.966;8.230;2023-02-22T01:03:47;100870.91;;;9.49;100.00
37610;BME280;23457;51.966;8.230;2023-02-22T01:06:15;100873.22;;;9.39;100.00
37610;BME280;23457;51.966;8.230;2023-02-22T01:08:46;100874.06;;;9.36;100.00
37610;BME280;23457;51.966;8.230;2023-02-22T01:11:15;100865.44;;;9.37;100.00
37610;BME280;23457;51.966;8.230;2023-02-22T01:13:43;100861.53;;;9.18;100.00
37610;BME280;23457;51.966;8.230;2023-02-22T01:16:12;100861.75;;;9.27;100.00
37610;BME280;23457;51.966;8.230;2023-02-22T01:18:39;100855.53;;;9.21;100.00
37610;BME280;23457;51.966;8.230;2023-02-22T01:21:05;100853.78;;;9.20;100.00
37610;BME280;23457;51.966;8.230;2023-02-22T01:23:34;100851.13;;;9.17;100.00
37610;BME280;23457;51.966;8.230;2023-02-22T01:26:00;100842.16;;;9.04;100.00
37610;BME280;23457;51.966;8.230;2023-02-22T01:28:30;100848.09;;;8.98;100.00
37610;BME280;23457;51.966;8.230;2023-02-22T01:30:57;100844.44;;;8.90;100.00
37610;BME280;23457;51.966;8.230;2023-02-22T01:33:23;100841.56;;;8.80;100.00
37610;BME280;23457;51.966;8.230;2023-02-22T01:35:51;100836.34;;;8.78;100.00
37610;BME280;23457;51.966;8.230;2023-02-22T01:38:18;100832.88;;;8.78;100.00
37610;BME280;23457;51.966;8.230;2023-02-22T01:40:49;100837.03;;;8.71;100.00
37610;BME280;23457;51.966;8.230;2023-02-22T01:43:25;100825.50;;;8.58;100.00
37610;BME280;23457;51.966;8.230;2023-02-22T01:45:55;100824.34;;;8.49;100.00
37610;BME280;23457;51.966;8.230;2023-02-22T01:48:28;100828.47;;;8.41;100.00
37610;BME280;23457;51.966;8.230;2023-02-22T01:51:00;100817.03;;;8.33;100.00
37610;BME280;23457;51.966;8.230;2023-02-22T01:53:33;100818.84;;;8.37;100.00
37610;BME280;23457;51.966;8.230;2023-02-22T01:56:02;100814.31;;;8.30;100.00
37610;BME280;23457;51.966;8.230;2023-02-22T01:58:31;100827.88;;;8.19;100.00
37610;BME280;23457;51.966;8.230;2023-02-22T02:00:59;100823.63;;;8.21;100.00
37610;BME280;23457;51.966;8.230;2023-02-22T02:03:32;100820.00;;;8.16;100.00
37610;BME280;23457;51.966;8.230;2023-02-22T02:06:05;100815.63;;;8.14;100.00
37610;BME280;23457;51.966;8.230;2023-02-22T02:08:37;100815.50;;;8.09;100.00
37610;BME280;23457;51.966;8.230;2023-02-22T02:11:08;100810.66;;;7.90;100.00
37610;BME280;23457;51.966;8.230;2023-02-22T02:13:36;100806.78;;;7.76;100.00
37610;BME280;23457;51.966;8.230;2023-02-22T02:16:02;100798.16;;;7.75;100.00
37610;BME280;23457;51.966;8.230;2023-02-22T02:18:29;100798.91;;;7.71;100.00
37610;BME280;23457;51.966;8.230;2023-02-22T02:24:20;100775.28;;;7.59;100.00
37610;BME280;23457;51.966;8.230;2023-02-22T02:29:53;100780.56;;;7.64;100.00
37610;BME280;23457;51.966;8.230;2023-02-22T02:40:50;100778.47;;;7.50;100.00
37610;BME280;23457;51.966;8.230;2023-02-22T02:43:35;100779.06;;;7.42;100.00
37610;BME280;23457;51.966;8.230;2023-02-22T02:48:34;100776.06;;;7.28;100.00
37610;BME280;23457;51.966;8.230;2023-02-22T02:51:04;100779.50;;;7.27;100.00
37610;BME280;23457;51.966;8.230;2023-02-22T02:53:38;100781.69;;;7.15;100.00
37610;BME280;23457;51.966;8.230;2023-02-22T02:56:06;100768.97;;;7.21;100.00
37610;BME280;23457;51.966;8.230;2023-02-22T02:58:51;100773.91;;;7.13;100.00
37610;BME280;23457;51.966;8.230;2023-02-22T03:01:34;100773.38;;;6.97;100.00
37610;BME280;23457;51.966;8.230;2023-02-22T03:04:25;100766.75;;;7.05;100.00
37610;BME280;23457;51.966;8.230;2023-02-22T03:09:49;100760.28;;;6.91;100.00
37610;BME280;23457;51.966;8.230;2023-02-22T03:23:47;100752.47;;;6.89;100.00
37610;BME280;23457;51.966;8.230;2023-02-22T03:26:21;100750.25;;;7.01;100.00
37610;BME280;23457;51.966;8.230;2023-02-22T03:28:54;100747.72;;;7.03;100.00
37610;BME280;23457;51.966;8.230;2023-02-22T03:31:28;100736.50;;;7.02;100.00
37610;BME280;23457;51.966;8.230;2023-02-22T03:34:00;100736.66;;;7.07;100.00
37610;BME280;23457;51.966;8.230;2023-02-22T03:36:34;100738.50;;;7.11;100.00
37610;BME280;23457;51.966;8.230;2023-02-22T03:39:08;100731.50;;;7.07;100.00
37610;BME280;23457;51.966;8.230;2023-02-22T03:41:42;100745.25;;;7.06;100.00
37610;BME280;23457;51.966;8.230;2023-02-22T03:44:14;100735.47;;;6.96;100.00
37610;BME280;23457;51.966;8.230;2023-02-22T03:46:42;100738.31;;;7.05;100.00
37610;BME280;23457;51.966;8.230;2023-02-22T03:49:30;100730.94;;;7.17;100.00
37610;BME280;23457;51.966;8.230;2023-02-22T03:51:59;100739.09;;;7.31;100.00
37610;BME280;23457;51.966;8.230;2023-02-22T03:54:28;100743.66;;;7.39;100.00
37610;BME280;23457;51.966;8.230;2023-02-22T03:56:58;100736.03;;;7.44;100.00
37610;BME280;23457;51.966;8.230;2023-02-22T03:59:29;100737.66;;;7.40;100.00
37610;BME280;23457;51.966;8.230;2023-02-22T04:01:56;100736.34;;;7.54;100.00
37610;BME280;23457;51.966;8.230;2023-02-22T04:04:24;100739.06;;;7.29;100.00
37610;BME280;23457;51.966;8.230;2023-02-22T04:06:51;100733.63;;;7.20;100.00
37610;BME280;23457;51.966;8.230;2023-02-22T04:09:19;100734.13;;;7.38;100.00
37610;BME280;23457;51.966;8.230;2023-02-22T04:11:47;100733.63;;;7.20;100.00
37610;BME280;23457;51.966;8.230;2023-02-22T04:14:14;100737.28;;;7.28;100.00
37610;BME280;23457;51.966;8.230;2023-02-22T04:16:41;100733.16;;;7.33;100.00
37610;BME280;23457;51.966;8.230;2023-02-22T04:19:08;100735.63;;;7.30;100.00
37610;BME280;23457;51.966;8.230;2023-02-22T04:21:37;100734.84;;;7.33;100.00
37610;BME280;23457;51.966;8.230;2023-02-22T04:24:06;100733.97;;;7.32;100.00
37610;BME280;23457;51.966;8.230;2023-02-22T04:26:33;100735.97;;;7.12;100.00
37610;BME280;23457;51.966;8.230;2023-02-22T04:29:01;100738.63;;;7.15;100.00
37610;BME280;23457;51.966;8.230;2023-02-22T04:31:35;100731.41;;;7.32;100.00
37610;BME280;23457;51.966;8.230;2023-02-22T04:34:02;100730.81;;;7.42;100.00
37610;BME280;23457;51.966;8.230;2023-02-22T04:36:33;100723.53;;;7.29;100.00
37610;BME280;23457;51.966;8.230;2023-02-22T04:39:00;100722.97;;;7.11;100.00
37610;BME280;23457;51.966;8.230;2023-02-22T04:41:28;100717.88;;;7.12;100.00
37610;BME280;23457;51.966;8.230;2023-02-22T04:43:56;100715.22;;;7.11;100.00
37610;BME280;23457;51.966;8.230;2023-02-22T04:46:25;100712.84;;;7.17;100.00
37610;BME280;23457;51.966;8.230;2023-02-22T04:48:52;100716.25;;;7.16;100.00
37610;BME280;23457;51.966;8.230;2023-02-22T04:51:23;100718.63;;;7.10;100.00
37610;BME280;23457;51.966;8.230;2023-02-22T04:53:59;100713.78;;;6.91;100.00
37610;BME280;23457;51.966;8.230;2023-02-22T04:56:27;100710.31;;;6.63;100.00
37610;BME280;23457;51.966;8.230;2023-02-22T04:58:53;100713.13;;;6.69;100.00
37610;BME280;23457;51.966;8.230;2023-02-22T05:01:20;100698.91;;;6.83;100.00
37610;BME280;23457;51.966;8.230;2023-02-22T05:03:47;100699.81;;;6.86;100.00
37610;BME280;23457;51.966;8.230;2023-02-22T05:06:17;100701.63;;;6.88;100.00
37610;BME280;23457;51.966;8.230;2023-02-22T05:08:43;100708.03;;;6.72;100.00
37610;BME280;23457;51.966;8.230;2023-02-22T05:11:10;100705.63;;;6.78;100.00
37610;BME280;23457;51.966;8.230;2023-02-22T05:13:37;100709.25;;;6.83;100.00
37610;BME280;23457;51.966;8.230;2023-02-22T05:16:04;100710.09;;;6.82;100.00
37610;BME280;23457;51.966;8.230;2023-02-22T05:18:30;100699.19;;;6.93;100.00
37610;BME280;23457;51.966;8.230;2023-02-22T05:20:57;100702.34;;;6.82;100.00
37610;BME280;23457;51.966;8.230;2023-02-22T05:23:24;100700.75;;;6.88;100.00
37610;BME280;23457;51.966;8.230;2023-02-22T05:25:51;100698.50;;;6.71;100.00
37610;BME280;23457;51.966;8.230;2023-02-22T05:28:17;100696.34;;;6.85;100.00
37610;BME280;23457;51.966;8.230;2023-02-22T05:30:45;100696.97;;;6.76;100.00
37610;BME280;23457;51.966;8.230;2023-02-22T05:33:11;100702.22;;;6.79;100.00
37610;BME280;23457;51.966;8.230;2023-02-22T05:35:38;100696.84;;;6.73;100.00
37610;BME280;23457;51.966;8.230;2023-02-22T05:38:05;100692.88;;;6.83;100.00
37610;BME280;23457;51.966;8.230;2023-02-22T05:40:33;100692.88;;;6.83;100.00
37610;BME280;23457;51.966;8.230;2023-02-22T05:42:59;100686.84;;;6.82;100.00
37610;BME280;23457;51.966;8.230;2023-02-22T05:45:27;100692.81;;;6.81;100.00
37610;BME280;23457;51.966;8.230;2023-02-22T05:47:55;100691.66;;;6.72;100.00
37610;BME280;23457;51.966;8.230;2023-02-22T05:50:23;100689.22;;;6.76;100.00
37610;BME280;23457;51.966;8.230;2023-02-22T05:52:51;100686.63;;;6.76;100.00
37610;BME280;23457;51.966;8.230;2023-02-22T05:55:19;100687.22;;;6.68;100.00
37610;BME280;23457;51.966;8.230;2023-02-22T05:57:47;100686.47;;;6.70;100.00
37610;BME280;23457;51.966;8.230;2023-02-22T06:00:18;100682.34;;;6.77;100.00
37610;BME280;23457;51.966;8.230;2023-02-22T06:02:45;100676.50;;;6.82;100.00
37610;BME280;23457;51.966;8.230;2023-02-22T06:05:12;100678.84;;;6.75;100.00
37610;BME280;23457;51.966;8.230;2023-02-22T06:07:39;100668.56;;;6.76;100.00
37610;BME280;23457;51.966;8.230;2023-02-22T06:10:06;100672.00;;;6.77;100.00
37610;BME280;23457;51.966;8.230;2023-02-22T06:12:32;100672.41;;;6.62;100.00
37610;BME280;23457;51.966;8.230;2023-02-22T06:14:59;100671.16;;;6.50;100.00
37610;BME280;23457;51.966;8.230;2023-02-22T06:17:26;100673.00;;;6.54;100.00
37610;BME280;23457;51.966;8.230;2023-02-22T06:19:52;100668.13;;;6.36;100.00
37610;BME280;23457;51.966;8.230;2023-02-22T06:22:19;100672.84;;;6.22;100.00
37610;BME280;23457;51.966;8.230;2023-02-22T06:24:45;100668.78;;;6.03;100.00
37610;BME280;23457;51.966;8.230;2023-02-22T06:27:12;100670.34;;;5.98;100.00
37610;BME280;23457;51.966;8.230;2023-02-22T06:29:43;100669.84;;;6.10;100.00
37610;BME280;23457;51.966;8.230;2023-02-22T06:32:10;100670.66;;;6.07;100.00
37610;BME280;23457;51.966;8.230;2023-02-22T06:34:37;100676.31;;;6.23;100.00
37610;BME280;23457;51.966;8.230;2023-02-22T06:37:04;100675.91;;;6.10;100.00
37610;BME280;23457;51.966;8.230;2023-02-22T06:39:30;100676.31;;;6.23;100.00
37610;BME280;23457;51.966;8.230;2023-02-22T06:41:58;100677.03;;;6.19;100.00
37610;BME280;23457;51.966;8.230;2023-02-22T06:44:25;100682.81;;;6.11;100.00
37610;BME280;23457;51.966;8.230;2023-02-22T06:46:51;100677.72;;;6.13;100.00
37610;BME280;23457;51.966;8.230;2023-02-22T06:49:19;100685.91;;;6.01;100.00
37610;BME280;23457;51.966;8.230;2023-02-22T06:51:46;100680.81;;;6.03;100.00
37610;BME280;23457;51.966;8.230;2023-02-22T06:54:13;100682.94;;;6.15;100.00
37610;BME280;23457;51.966;8.230;2023-02-22T06:56:40;100688.38;;;5.98;100.00
37610;BME280;23457;51.966;8.230;2023-02-22T06:59:06;100676.25;;;5.94;100.00
37610;BME280;23457;51.966;8.230;2023-02-22T07:01:34;100679.63;;;5.93;100.00
37610;BME280;23457;51.966;8.230;2023-02-22T07:04:01;100677.25;;;5.75;100.00
37610;BME280;23457;51.966;8.230;2023-02-22T07:06:27;100683.34;;;6.01;100.00
37610;BME280;23457;51.966;8.230;2023-02-22T07:08:54;100685.28;;;6.08;100.00
37610;BME280;23457;51.966;8.230;2023-02-22T07:11:21;100689.94;;;6.19;100.00
37610;BME280;23457;51.966;8.230;2023-02-22T07:13:47;100682.22;;;5.93;100.00
37610;BME280;23457;51.966;8.230;2023-02-22T07:16:14;100688.56;;;6.03;100.00
37610;BME280;23457;51.966;8.230;2023-02-22T07:18:41;100680.59;;;5.97;100.00
37610;BME280;23457;51.966;8.230;2023-02-22T07:21:07;100687.94;;;5.86;100.00
37610;BME280;23457;51.966;8.230;2023-02-22T07:23:34;100690.56;;;5.88;100.00
37610;BME280;23457;51.966;8.230;2023-02-22T07:26:02;100687.00;;;5.84;100.00
37610;BME280;23457;51.966;8.230;2023-02-22T07:28:28;100686.81;;;5.78;100.00
37610;BME280;23457;51.966;8.230;2023-02-22T07:30:55;100683.88;;;5.91;100.00
37610;BME280;23457;51.966;8.230;2023-02-22T07:33:22;100681.47;;;5.97;100.00
37610;BME280;23457;51.966;8.230;2023-02-22T07:35:49;100680.88;;;6.04;100.00
37610;BME280;23457;51.966;8.230;2023-02-22T07:38:18;100680.75;;;6.01;100.00
37610;BME280;23457;51.966;8.230;2023-02-22T07:40:45;100680.59;;;5.97;100.00
37610;BME280;23457;51.966;8.230;2023-02-22T07:43:25;100684.38;;;6.33;100.00
37610;BME280;23457;51.966;8.230;2023-02-22T07:45:54;100679.59;;;6.44;100.00
37610;BME280;23457;51.966;8.230;2023-02-22T07:48:23;100676.38;;;6.51;100.00
37610;BME280;23457;51.966;8.230;2023-02-22T07:50:50;100685.81;;;6.51;100.00
37610;BME280;23457;51.966;8.230;2023-02-22T07:53:23;100683.00;;;6.71;100.00
37610;BME280;23457;51.966;8.230;2023-02-22T07:55:50;100679.31;;;6.90;100.00
37610;BME280;23457;51.966;8.230;2023-02-22T07:58:20;100683.78;;;6.96;100.00
37610;BME280;23457;51.966;8.230;2023-02-22T08:00:47;100678.78;;;7.02;100.00
37610;BME280;23457;51.966;8.230;2023-02-22T08:03:16;100679.88;;;7.08;100.00
37610;BME280;23457;51.966;8.230;2023-02-22T08:05:55;100678.22;;;7.12;100.00
37610;BME280;23457;51.966;8.230;2023-02-22T08:08:22;100681.16;;;7.24;100.00
37610;BME280;23457;51.966;8.230;2023-02-22T08:10:50;100670.28;;;7.34;100.00
37610;BME280;23457;51.966;8.230;2023-02-22T08:13:18;100667.88;;;7.42;100.00
37610;BME280;23457;51.966;8.230;2023-02-22T08:15:45;100667.09;;;7.44;100.00
37610;BME280;23457;51.966;8.230;2023-02-22T08:18:14;100670.38;;;7.39;100.00
37610;BME280;23457;51.966;8.230;2023-02-22T08:20:44;100664.66;;;7.50;100.00
37610;BME280;23457;51.966;8.230;2023-02-22T08:23:12;100657.84;;;7.52;100.00
37610;BME280;23457;51.966;8.230;2023-02-22T08:25:39;100664.75;;;7.53;100.00
37610;BME280;23457;51.966;8.230;2023-02-22T08:28:09;100659.81;;;7.63;100.00
37610;BME280;23457;51.966;8.230;2023-02-22T08:30:37;100659.28;;;7.74;100.00
37610;BME280;23457;51.966;8.230;2023-02-22T08:33:06;100647.56;;;7.88;100.00
37610;BME280;23457;51.966;8.230;2023-02-22T08:35:33;100652.03;;;7.94;100.00
37610;BME280;23457;51.966;8.230;2023-02-22T08:38:02;100652.56;;;8.15;100.00
37610;BME280;23457;51.966;8.230;2023-02-22T08:40:31;100646.09;;;7.98;100.00
37610;BME280;23457;51.966;8.230;2023-02-22T08:42:58;100648.28;;;8.16;100.00
37610;BME280;23457;51.966;8.230;2023-02-22T08:45:25;100646.91;;;8.30;100.00
37610;BME280;23457;51.966;8.230;2023-02-22T08:47:51;100649.09;;;8.15;100.00
37610;BME280;23457;51.966;8.230;2023-02-22T08:50:24;100654.94;;;8.41;100.00
37610;BME280;23457;51.966;8.230;2023-02-22T08:52:53;100651.84;;;8.55;100.00
37610;BME280;23457;51.966;8.230;2023-02-22T08:55:24;100646.03;;;8.66;100.00
37610;BME280;23457;51.966;8.230;2023-02-22T08:57:51;100635.69;;;8.67;100.00
37610;BME280;23457;51.966;8.230;2023-02-22T09:00:20;100638.72;;;8.85;100.00
37610;BME280;23457;51.966;8.230;2023-02-22T09:02:51;100638.72;;;8.85;100.00
37610;BME280;23457;51.966;8.230;2023-02-22T09:05:18;100634.53;;;8.92;100.00
37610;BME280;23457;51.966;8.230;2023-02-22T09:07:45;100628.63;;;9.01;100.00
37610;BME280;23457;51.966;8.230;2023-02-22T09:10:22;100631.06;;;8.91;100.00
37610;BME280;23457;51.966;8.230;2023-02-22T09:12:53;100624.59;;;9.12;100.00
37610;BME280;23457;51.966;8.230;2023-02-22T09:15:24;100625.50;;;9.15;100.00
37610;BME280;23457;51.966;8.230;2023-02-22T09:17:51;100619.88;;;9.36;100.00
37610;BME280;23457;51.966;8.230;2023-02-22T09:20:21;100619.31;;;9.52;100.00
37610;BME280;23457;51.966;8.230;2023-02-22T09:22:48;100616.16;;;9.68;100.00
37610;BME280;23457;51.966;8.230;2023-02-22T09:25:16;100616.41;;;9.84;100.00
37610;BME280;23457;51.966;8.230;2023-02-22T09:27:50;100609.47;;;9.83;100.00
37610;BME280;23457;51.966;8.230;2023-02-22T09:33:00;100604.94;;;9.71;100.00
37610;BME280;23457;51.966;8.230;2023-02-22T09:35:27;100604.28;;;9.83;100.00
37610;BME280;23457;51.966;8.230;2023-02-22T09:37:58;100596.63;;;9.90;100.00
37610;BME280;23457;51.966;8.230;2023-02-22T09:40:29;100598.63;;;10.06;100.00
37610;BME280;23457;51.966;8.230;2023-02-22T09:43:08;100597.88;;;10.15;100.00
37610;BME280;23457;51.966;8.230;2023-02-22T09:46:01;100600.00;;;10.36;100.00
37610;BME280;23457;51.966;8.230;2023-02-22T09:48:44;100593.25;;;10.49;100.00
37610;BME280;23457;51.966;8.230;2023-02-22T09:51:16;100595.19;;;10.65;100.00
37610;BME280;23457;51.966;8.230;2023-02-22T09:53:49;100583.94;;;10.63;100.00
37610;BME280;23457;51.966;8.230;2023-02-22T09:56:19;100585.97;;;10.87;100.00
37610;BME280;23457;51.966;8.230;2023-02-22T09:58:49;100588.66;;;10.94;100.00
37610;BME280;23457;51.966;8.230;2023-02-22T10:01:32;100580.94;;;11.02;100.00
37610;BME280;23457;51.966;8.230;2023-02-22T10:04:12;100570.66;;;11.09;100.00
37610;BME280;23457;51.966;8.230;2023-02-22T10:07:31;100573.25;;;11.09;100.00
37610;BME280;23457;51.966;8.230;2023-02-22T10:09:58;100573.28;;;11.12;100.00
37610;BME280;23457;51.966;8.230;2023-02-22T10:12:48;100575.34;;;11.44;100.00
37610;BME280;23457;51.966;8.230;2023-02-22T10:27:28;100571.41;;;11.82;100.00
37610;BME280;23457;51.966;8.230;2023-02-22T10:30:29;100575.91;;;12.03;100.00
37610;BME280;23457;51.966;8.230;2023-02-22T10:33:36;100573.31;;;12.02;100.00
37610;BME280;23457;51.966;8.230;2023-02-22T10:36:04;100572.56;;;12.18;100.00
37610;BME280;23457;51.966;8.230;2023-02-22T10:38:32;100565.59;;;12.17;100.00
37610;BME280;23457;51.966;8.230;2023-02-22T10:43:42;100565.88;;;12.61;100.00
37610;BME280;23457;51.966;8.230;2023-02-22T10:46:16;100565.91;;;12.66;100.00
37610;BME280;23457;51.966;8.230;2023-02-22T10:48:49;100560.69;;;12.69;100.00
37610;BME280;23457;51.966;8.230;2023-02-22T10:51:17;100560.72;;;12.72;100.00
37610;BME280;23457;51.966;8.230;2023-02-22T10:53:44;100558.13;;;12.75;100.00
37610;BME280;23457;51.966;8.230;2023-02-22T10:56:24;100558.13;;;12.75;100.00
37610;BME280;23457;51.966;8.230;2023-02-22T10:58:55;100552.09;;;12.85;100.00
37610;BME280;23457;51.966;8.230;2023-02-22T11:01:33;100553.03;;;13.02;100.00
37610;BME280;23457;51.966;8.230;2023-02-22T11:04:02;100551.31;;;13.03;98.61
37610;BME280;23457;51.966;8.230;2023-02-22T11:06:32;100553.97;;;13.19;97.63
37610;BME280;23457;51.966;8.230;2023-02-22T11:11:36;100540.09;;;13.36;95.89
37610;BME280;23457;51.966;8.230;2023-02-22T11:14:03;100538.34;;;13.44;95.33
37610;BME280;23457;51.966;8.230;2023-02-22T11:16:34;100547.06;;;13.56;93.39
37610;BME280;23457;51.966;8.230;2023-02-22T11:19:28;100539.28;;;13.64;94.37
37610;BME280;23457;51.966;8.230;2023-02-22T11:24:48;100526.19;;;13.82;94.91
37610;BME280;23457;51.966;8.230;2023-02-22T11:27:40;100524.47;;;14.06;89.81
37610;BME280;23457;51.966;8.230;2023-02-22T11:32:59;100518.34;;;14.17;92.27
37610;BME280;23457;51.966;8.230;2023-02-22T11:35:31;100515.72;;;14.31;87.26
37610;BME280;23457;51.966;8.230;2023-02-22T11:38:24;100506.97;;;14.50;88.79
37610;BME280;23457;51.966;8.230;2023-02-22T11:41:25;100506.03;;;14.65;87.19
37610;BME280;23457;51.966;8.230;2023-02-22T11:43:52;100492.91;;;14.69;85.71
37610;BME280;23457;51.966;8.230;2023-02-22T11:46:26;100500.69;;;14.89;83.69
37610;BME280;23457;51.966;8.230;2023-02-22T11:48:59;100500.69;;;14.86;84.86
37610;BME280;23457;51.966;8.230;2023-02-22T11:51:45;100500.75;;;14.74;77.20
37610;BME280;23457;51.966;8.230;2023-02-22T11:54:49;100490.31;;;14.71;77.93
37610;BME280;23457;51.966;8.230;2023-02-22T11:57:40;100496.34;;;14.88;80.92
37610;BME280;23457;51.966;8.230;2023-02-22T12:08:11;100482.06;;;15.36;77.10
37610;BME280;23457;51.966;8.230;2023-02-22T12:13:50;100476.81;;;15.41;71.94
37610;BME280;23457;51.966;8.230;2023-02-22T12:21:39;100468.69;;;15.76;74.69
37610;BME280;23457;51.966;8.230;2023-02-22T12:24:20;100460.75;;;15.85;73.98
37610;BME280;23457;51.966;8.230;2023-02-22T12:27:10;100459.06;;;15.78;71.90
37610;BME280;23457;51.966;8.230;2023-02-22T12:29:45;100453.97;;;15.60;66.50
37610;BME280;23457;51.966;8.230;2023-02-22T12:32:44;100458.41;;;15.55;63.43
37610;BME280;23457;51.966;8.230;2023-02-22T12:38:00;100451.00;;;15.99;70.06
37610;BME280;23457;51.966;8.230;2023-02-22T12:40:55;100445.69;;;16.07;67.16
37610;BME280;23457;51.966;8.230;2023-02-22T12:43:26;100446.75;;;15.86;65.66
37610;BME280;23457;51.966;8.230;2023-02-22T12:48:30;100442.84;;;16.24;66.28
37610;BME280;23457;51.966;8.230;2023-02-22T12:51:13;100442.78;;;16.33;63.16
37610;BME280;23457;51.966;8.230;2023-02-22T12:53:45;100446.59;;;16.04;65.47
37610;BME280;23457;51.966;8.230;2023-02-22T12:56:27;100438.50;;;16.23;66.49
37610;BME280;23457;51.966;8.230;2023-02-22T13:01:36;100438.03;;;15.86;65.41
37610;BME280;23457;51.966;8.230;2023-02-22T13:04:04;100443.03;;;16.08;64.48
37610;BME280;23457;51.966;8.230;2023-02-22T13:12:49;100437.91;;;15.96;61.92
37610;BME280;23457;51.966;8.230;2023-02-22T13:18:05;100423.66;;;16.22;63.58
37610;BME280;23457;51.966;8.230;2023-02-22T13:23:24;100427.75;;;16.45;62.08
37610;BME280;23457;51.966;8.230;2023-02-22T13:28:46;100421.97;;;16.18;56.94
37610;BME280;23457;51.966;8.230;2023-02-22T13:31:41;100415.84;;;16.19;59.29
37610;BME280;23457;51.966;8.230;2023-02-22T13:48:17;100416.00;;;16.75;53.88
37610;BME280;23457;51.966;8.230;2023-02-22T13:50:57;100414.44;;;16.62;56.92
37610;BME280;23457;51.966;8.230;2023-02-22T13:53:45;100404.81;;;16.60;57.37
37610;BME280;23457;51.966;8.230;2023-02-22T13:56:13;100403.00;;;16.68;57.26
37610;BME280;23457;51.966;8.230;2023-02-22T13:58:53;100406.34;;;16.77;55.33
37610;BME280;23457;51.966;8.230;2023-02-22T14:04:19;100402.88;;;16.75;55.02
37610;BME280;23457;51.966;8.230;2023-02-22T14:06:46;100404.28;;;16.99;55.56
37610;BME280;23457;51.966;8.230;2023-02-22T14:09:46;100403.59;;;16.85;55.09
37610;BME280;23457;51.966;8.230;2023-02-22T14:23:42;100392.31;;;16.81;53.43
37610;BME280;23457;51.966;8.230;2023-02-22T14:31:17;100381.81;;;16.81;53.70
37610;BME280;23457;51.966;8.230;2023-02-22T14:34:06;100381.00;;;16.76;54.16
37610;BME280;23457;51.966;8.230;2023-02-22T14:36:56;100384.25;;;16.94;56.33
37610;BME280;23457;51.966;8.230;2023-02-22T14:39:56;100388.41;;;17.07;55.15
37610;BME280;23457;51.966;8.230;2023-02-22T14:42:33;100384.78;;;17.14;56.56
37610;BME280;23457;51.966;8.230;2023-02-22T14:45:25;100381.25;;;17.18;54.58
37610;BME280;23457;51.966;8.230;2023-02-22T14:48:19;100382.31;;;17.05;54.84
37610;BME280;23457;51.966;8.230;2023-02-22T14:50:53;100375.31;;;17.05;55.67
37610;BME280;23457;51.966;8.230;2023-02-22T14:53:26;100373.72;;;16.95;58.60
37610;BME280;23457;51.966;8.230;2023-02-22T14:55:59;100368.75;;;16.75;58.77
37610;BME280;23457;51.966;8.230;2023-02-22T15:01:20;100378.53;;;16.66;66.13
37610;BME280;23457;51.966;8.230;2023-02-22T15:03:50;100378.56;;;16.63;66.86
37610;BME280;23457;51.966;8.230;2023-02-22T15:06:32;100370.66;;;16.67;69.71
37610;BME280;23457;51.966;8.230;2023-02-22T15:09:10;100375.91;;;16.67;70.48
37610;BME280;23457;51.966;8.230;2023-02-22T15:11:37;100369.94;;;16.53;73.93
37610;BME280;23457;51.966;8.230;2023-02-22T15:14:34;100370.84;;;16.49;75.57
37610;BME280;23457;51.966;8.230;2023-02-22T15:17:22;100370.97;;;16.41;76.39
37610;BME280;23457;51.966;8.230;2023-02-22T15:19:50;100372.03;;;16.25;78.10
37610;BME280;23457;51.966;8.230;2023-02-22T15:22:20;100369.56;;;16.13;80.06
37610;BME280;23457;51.966;8.230;2023-02-22T15:25:05;100366.13;;;16.09;79.84
37610;BME280;23457;51.966;8.230;2023-02-22T15:27:34;100367.97;;;16.01;80.38